sensor_id;sensor_type;location;lat;lon;timestamp;P1;durP1;ratioP1;P2;durP2;ratioP2
59434;SDS011;45241;49.768;8.636;2023-05-31T00:01:23;4.22;;;1.73;;
59434;SDS011;45241;49.768;8.636;2023-05-31T00:03:48;4.18;;;1.48;;
59434;SDS011;45241;49.768;8.636;2023-05-31T00:06:14;4.55;;;1.50;;
59434;SDS011;45241;49.768;8.636;2023-05-31T00:08:39;4.88;;;1.50;;
59434;SDS011;45241;49.768;8.636;2023-05-31T00:11:06;5.15;;;1.60;;
59434;SDS011;45241;49.768;8.636;2023-05-31T00:13:32;6.30;;;1.70;;
59434;SDS011;45241;49.768;8.636;2023-05-31T00:15:57;3.67;;;1.80;;
59434;SDS011;45241;49.768;8.636;2023-05-31T00:18:23;4.13;;;1.40;;
59434;SDS011;45241;49.768;8.636;2023-05-31T00:20:48;4.97;;;1.40;;
59434;SDS011;45241;49.768;8.636;2023-05-31T00:23:14;4.03;;;1.30;;
59434;SDS011;45241;49.768;8.636;2023-05-31T00:25:40;5.00;;;1.55;;
59434;SDS011;45241;49.768;8.636;2023-05-31T00:28:05;6.43;;;1.58;;
59434;SDS011;45241;49.768;8.636;2023-05-31T00:30:30;9.52;;;1.85;;
59434;SDS011;45241;49.768;8.636;2023-05-31T00:32:56;4.22;;;1.45;;
59434;SDS011;45241;49.768;8.636;2023-05-31T00:35:21;4.32;;;1.27;;
59434;SDS011;45241;49.768;8.636;2023-05-31T00:37:46;7.05;;;1.60;;
59434;SDS011;45241;49.768;8.636;2023-05-31T00:40:12;4.32;;;1.70;;
59434;SDS011;45241;49.768;8.636;2023-05-31T00:42:37;3.85;;;1.50;;
59434;SDS011;45241;49.768;8.636;2023-05-31T00:45:04;3.58;;;1.50;;
59434;SDS011;45241;49.768;8.636;2023-05-31T00:47:30;3.00;;;1.42;;
59434;SDS011;45241;49.768;8.636;2023-05-31T00:49:56;5.82;;;1.92;;
59434;SDS011;45241;49.768;8.636;2023-05-31T00:52:22;3.45;;;1.30;;
59434;SDS011;45241;49.768;8.636;2023-05-31T00:54:47;5.22;;;1.98;;
59434;SDS011;45241;49.768;8.636;2023-05-31T00:57:14;5.90;;;1.60;;
59434;SDS011;45241;49.768;8.636;2023-05-31T00:59:40;4.18;;;1.33;;
59434;SDS011;45241;49.768;8.636;2023-05-31T01:02:06;6.35;;;1.90;;
59434;SDS011;45241;49.768;8.636;2023-05-31T01:04:31;4.20;;;1.60;;
59434;SDS011;45241;49.768;8.636;2023-05-31T01:06:59;4.03;;;1.65;;
59434;SDS011;45241;49.768;8.636;2023-05-31T01:09:25;4.85;;;1.67;;
59434;SDS011;45241;49.768;8.636;2023-05-31T01:12:07;5.15;;;1.67;;
59434;SDS011;45241;49.768;8.636;2023-05-31T01:20:14;5.15;;;2.05;;
59434;SDS011;45241;49.768;8.636;2023-05-31T01:28:08;4.53;;;1.90;;
59434;SDS011;45241;49.768;8.636;2023-05-31T01:30:36;3.60;;;1.60;;
59434;SDS011;45241;49.768;8.636;2023-05-31T01:33:02;6.45;;;1.90;;
59434;SDS011;45241;49.768;8.636;2023-05-31T01:35:32;3.55;;;1.67;;
59434;SDS011;45241;49.768;8.636;2023-05-31T01:37:57;4.80;;;1.75;;
59434;SDS011;45241;49.768;8.636;2023-05-31T01:40:23;4.57;;;1.83;;
59434;SDS011;45241;49.768;8.636;2023-05-31T01:42:48;4.72;;;1.70;;
59434;SDS011;45241;49.768;8.636;2023-05-31T01:45:15;3.90;;;1.60;;
59434;SDS011;45241;49.768;8.636;2023-05-31T01:47:41;5.90;;;1.60;;
59434;SDS011;45241;49.768;8.636;2023-05-31T01:50:08;3.75;;;1.42;;
59434;SDS011;45241;49.768;8.636;2023-05-31T01:52:37;3.50;;;1.38;;
59434;SDS011;45241;49.768;8.636;2023-05-31T01:55:02;4.18;;;1.45;;
59434;SDS011;45241;49.768;8.636;2023-05-31T01:57:29;5.07;;;1.58;;
59434;SDS011;45241;49.768;8.636;2023-05-31T01:59:57;5.13;;;1.50;;
59434;SDS011;45241;49.768;8.636;2023-05-31T02:02:24;2.50;;;1.40;;
59434;SDS011;45241;49.768;8.636;2023-05-31T02:05:03;4.93;;;1.70;;
59434;SDS011;45241;49.768;8.636;2023-05-31T02:07:30;3.50;;;1.55;;
59434;SDS011;45241;49.768;8.636;2023-05-31T02:09:56;6.03;;;1.60;;
59434;SDS011;45241;49.768;8.636;2023-05-31T02:12:21;5.50;;;1.70;;
59434;SDS011;45241;49.768;8.636;2023-05-31T02:14:47;5.22;;;1.58;;
59434;SDS011;45241;49.768;8.636;2023-05-31T02:17:12;5.63;;;1.60;;
59434;SDS011;45241;49.768;8.636;2023-05-31T02:19:38;4.20;;;1.70;;
59434;SDS011;45241;49.768;8.636;2023-05-31T02:22:05;4.22;;;1.50;;
59434;SDS011;45241;49.768;8.636;2023-05-31T02:24:31;3.40;;;1.52;;
59434;SDS011;45241;49.768;8.636;2023-05-31T02:26:56;4.05;;;1.70;;
59434;SDS011;45241;49.768;8.636;2023-05-31T02:29:22;4.20;;;1.55;;
59434;SDS011;45241;49.768;8.636;2023-05-31T02:31:47;5.97;;;1.90;;
59434;SDS011;45241;49.768;8.636;2023-05-31T02:34:12;4.32;;;1.63;;
59434;SDS011;45241;49.768;8.636;2023-05-31T02:36:38;6.90;;;1.83;;
59434;SDS011;45241;49.768;8.636;2023-05-31T02:39:05;6.18;;;1.60;;
59434;SDS011;45241;49.768;8.636;2023-05-31T02:41:30;5.00;;;1.90;;
59434;SDS011;45241;49.768;8.636;2023-05-31T02:43:55;8.15;;;2.10;;
59434;SDS011;45241;49.768;8.636;2023-05-31T02:46:21;7.00;;;2.13;;
59434;SDS011;45241;49.768;8.636;2023-05-31T02:48:46;4.70;;;1.67;;
59434;SDS011;45241;49.768;8.636;2023-05-31T02:51:12;6.18;;;1.75;;
59434;SDS011;45241;49.768;8.636;2023-05-31T02:53:37;5.05;;;1.98;;
59434;SDS011;45241;49.768;8.636;2023-05-31T02:56:02;3.95;;;1.95;;
59434;SDS011;45241;49.768;8.636;2023-05-31T02:58:28;5.07;;;1.77;;
59434;SDS011;45241;49.768;8.636;2023-05-31T03:00:53;5.75;;;1.75;;
59434;SDS011;45241;49.768;8.636;2023-05-31T03:03:18;5.13;;;1.85;;
59434;SDS011;45241;49.768;8.636;2023-05-31T03:05:43;4.35;;;1.70;;
59434;SDS011;45241;49.768;8.636;2023-05-31T03:08:09;2.97;;;1.67;;
59434;SDS011;45241;49.768;8.636;2023-05-31T03:10:34;3.80;;;1.70;;
59434;SDS011;45241;49.768;8.636;2023-05-31T03:13:00;5.40;;;2.50;;
59434;SDS011;45241;49.768;8.636;2023-05-31T03:15:25;5.70;;;2.10;;
59434;SDS011;45241;49.768;8.636;2023-05-31T03:17:50;7.85;;;2.30;;
59434;SDS011;45241;49.768;8.636;2023-05-31T03:20:16;5.55;;;1.85;;
59434;SDS011;45241;49.768;8.636;2023-05-31T03:22:41;5.97;;;1.83;;
59434;SDS011;45241;49.768;8.636;2023-05-31T03:25:06;6.70;;;1.85;;
59434;SDS011;45241;49.768;8.636;2023-05-31T03:27:32;5.82;;;1.73;;
59434;SDS011;45241;49.768;8.636;2023-05-31T03:29:57;5.55;;;1.85;;
59434;SDS011;45241;49.768;8.636;2023-05-31T03:32:23;5.22;;;1.98;;
59434;SDS011;45241;49.768;8.636;2023-05-31T03:34:48;4.80;;;1.95;;
59434;SDS011;45241;49.768;8.636;2023-05-31T03:37:14;4.65;;;1.70;;
59434;SDS011;45241;49.768;8.636;2023-05-31T03:39:39;3.90;;;1.73;;
59434;SDS011;45241;49.768;8.636;2023-05-31T03:42:04;3.60;;;1.67;;
59434;SDS011;45241;49.768;8.636;2023-05-31T03:44:30;10.07;;;2.30;;
59434;SDS011;45241;49.768;8.636;2023-05-31T03:46:56;4.78;;;2.00;;
59434;SDS011;45241;49.768;8.636;2023-05-31T03:49:22;7.07;;;2.00;;
59434;SDS011;45241;49.768;8.636;2023-05-31T03:51:47;5.47;;;2.10;;
59434;SDS011;45241;49.768;8.636;2023-05-31T03:54:12;6.57;;;2.28;;
59434;SDS011;45241;49.768;8.636;2023-05-31T03:56:38;6.03;;;1.90;;
59434;SDS011;45241;49.768;8.636;2023-05-31T03:59:03;6.60;;;1.90;;
59434;SDS011;45241;49.768;8.636;2023-05-31T04:01:28;6.13;;;2.00;;
59434;SDS011;45241;49.768;8.636;2023-05-31T04:03:54;5.07;;;1.98;;
59434;SDS011;45241;49.768;8.636;2023-05-31T04:06:19;3.90;;;2.00;;
59434;SDS011;45241;49.768;8.636;2023-05-31T04:08:45;6.65;;;1.92;;
59434;SDS011;45241;49.768;8.636;2023-05-31T04:11:11;5.78;;;2.00;;
59434;SDS011;45241;49.768;8.636;2023-05-31T04:13:36;5.47;;;2.05;;
59434;SDS011;45241;49.768;8.636;2023-05-31T04:16:01;5.72;;;1.92;;
59434;SDS011;45241;49.768;8.636;2023-05-31T04:18:27;6.60;;;2.00;;
59434;SDS011;45241;49.768;8.636;2023-05-31T04:20:53;7.25;;;2.30;;
59434;SDS011;45241;49.768;8.636;2023-05-31T04:23:18;5.22;;;2.15;;
59434;SDS011;45241;49.768;8.636;2023-05-31T04:25:43;7.90;;;2.10;;
59434;SDS011;45241;49.768;8.636;2023-05-31T04:28:09;4.63;;;2.20;;
59434;SDS011;45241;49.768;8.636;2023-05-31T04:30:36;5.15;;;1.92;;
59434;SDS011;45241;49.768;8.636;2023-05-31T04:33:02;7.03;;;2.50;;
59434;SDS011;45241;49.768;8.636;2023-05-31T04:35:30;5.78;;;1.92;;
59434;SDS011;45241;49.768;8.636;2023-05-31T04:37:55;5.63;;;2.35;;
59434;SDS011;45241;49.768;8.636;2023-05-31T04:40:24;6.13;;;2.00;;
59434;SDS011;45241;49.768;8.636;2023-05-31T04:42:51;4.63;;;2.20;;
59434;SDS011;45241;49.768;8.636;2023-05-31T04:45:16;7.45;;;2.00;;
59434;SDS011;45241;49.768;8.636;2023-05-31T04:47:41;4.70;;;2.20;;
59434;SDS011;45241;49.768;8.636;2023-05-31T04:50:08;7.80;;;2.70;;
59434;SDS011;45241;49.768;8.636;2023-05-31T04:52:34;6.07;;;2.00;;
59434;SDS011;45241;49.768;8.636;2023-05-31T04:54:59;5.43;;;2.13;;
59434;SDS011;45241;49.768;8.636;2023-05-31T04:57:25;2.72;;;1.80;;
59434;SDS011;45241;49.768;8.636;2023-05-31T04:59:51;5.28;;;2.00;;
59434;SDS011;45241;49.768;8.636;2023-05-31T05:02:17;5.53;;;2.03;;
59434;SDS011;45241;49.768;8.636;2023-05-31T05:04:43;5.57;;;2.20;;
59434;SDS011;45241;49.768;8.636;2023-05-31T05:07:09;4.05;;;2.08;;
59434;SDS011;45241;49.768;8.636;2023-05-31T05:09:34;5.93;;;2.22;;
59434;SDS011;45241;49.768;8.636;2023-05-31T05:12:00;3.90;;;1.80;;
59434;SDS011;45241;49.768;8.636;2023-05-31T05:14:25;5.53;;;2.08;;
59434;SDS011;45241;49.768;8.636;2023-05-31T05:16:51;5.07;;;2.30;;
59434;SDS011;45241;49.768;8.636;2023-05-31T05:19:16;6.45;;;1.90;;
59434;SDS011;45241;49.768;8.636;2023-05-31T05:21:41;9.77;;;1.85;;
59434;SDS011;45241;49.768;8.636;2023-05-31T05:24:06;4.25;;;1.95;;
59434;SDS011;45241;49.768;8.636;2023-05-31T05:26:32;6.47;;;2.00;;
59434;SDS011;45241;49.768;8.636;2023-05-31T05:28:58;6.30;;;2.20;;
59434;SDS011;45241;49.768;8.636;2023-05-31T05:31:24;5.53;;;1.80;;
59434;SDS011;45241;49.768;8.636;2023-05-31T05:33:50;5.55;;;1.90;;
59434;SDS011;45241;49.768;8.636;2023-05-31T05:36:16;6.78;;;2.15;;
59434;SDS011;45241;49.768;8.636;2023-05-31T05:38:41;3.85;;;1.58;;
59434;SDS011;45241;49.768;8.636;2023-05-31T05:41:06;6.35;;;2.28;;
59434;SDS011;45241;49.768;8.636;2023-05-31T05:43:36;5.45;;;2.25;;
59434;SDS011;45241;49.768;8.636;2023-05-31T05:46:01;6.13;;;1.80;;
59434;SDS011;45241;49.768;8.636;2023-05-31T05:48:26;4.65;;;2.00;;
59434;SDS011;45241;49.768;8.636;2023-05-31T05:50:51;4.07;;;2.00;;
59434;SDS011;45241;49.768;8.636;2023-05-31T05:53:17;5.28;;;1.92;;
59434;SDS011;45241;49.768;8.636;2023-05-31T05:55:48;4.40;;;2.22;;
59434;SDS011;45241;49.768;8.636;2023-05-31T05:58:16;3.75;;;1.60;;
59434;SDS011;45241;49.768;8.636;2023-05-31T06:00:42;4.65;;;1.52;;
59434;SDS011;45241;49.768;8.636;2023-05-31T06:03:09;5.60;;;2.05;;
59434;SDS011;45241;49.768;8.636;2023-05-31T06:05:35;4.50;;;1.65;;
59434;SDS011;45241;49.768;8.636;2023-05-31T06:08:00;5.88;;;1.83;;
59434;SDS011;45241;49.768;8.636;2023-05-31T06:10:26;4.32;;;1.88;;
59434;SDS011;45241;49.768;8.636;2023-05-31T06:12:51;5.32;;;1.80;;
59434;SDS011;45241;49.768;8.636;2023-05-31T06:15:16;7.05;;;1.83;;
59434;SDS011;45241;49.768;8.636;2023-05-31T06:17:41;4.22;;;1.90;;
59434;SDS011;45241;49.768;8.636;2023-05-31T06:20:08;5.22;;;2.00;;
59434;SDS011;45241;49.768;8.636;2023-05-31T06:22:35;5.00;;;1.95;;
59434;SDS011;45241;49.768;8.636;2023-05-31T06:25:00;3.55;;;1.63;;
59434;SDS011;45241;49.768;8.636;2023-05-31T06:27:26;5.53;;;1.85;;
59434;SDS011;45241;49.768;8.636;2023-05-31T06:29:51;4.85;;;1.88;;
59434;SDS011;45241;49.768;8.636;2023-05-31T06:32:22;5.28;;;1.70;;
59434;SDS011;45241;49.768;8.636;2023-05-31T06:34:48;5.93;;;2.03;;
59434;SDS011;45241;49.768;8.636;2023-05-31T06:37:13;4.03;;;1.83;;
59434;SDS011;45241;49.768;8.636;2023-05-31T06:39:39;3.42;;;1.67;;
59434;SDS011;45241;49.768;8.636;2023-05-31T06:42:04;5.30;;;1.75;;
59434;SDS011;45241;49.768;8.636;2023-05-31T06:44:30;6.55;;;1.92;;
59434;SDS011;45241;49.768;8.636;2023-05-31T06:46:55;5.68;;;1.90;;
59434;SDS011;45241;49.768;8.636;2023-05-31T06:49:21;2.90;;;1.70;;
59434;SDS011;45241;49.768;8.636;2023-05-31T06:51:46;4.43;;;1.80;;
59434;SDS011;45241;49.768;8.636;2023-05-31T06:54:11;3.72;;;1.75;;
59434;SDS011;45241;49.768;8.636;2023-05-31T06:56:37;5.72;;;1.90;;
59434;SDS011;45241;49.768;8.636;2023-05-31T06:59:02;3.75;;;1.70;;
59434;SDS011;45241;49.768;8.636;2023-05-31T07:01:27;5.68;;;1.75;;
59434;SDS011;45241;49.768;8.636;2023-05-31T07:03:53;4.03;;;1.60;;
59434;SDS011;45241;49.768;8.636;2023-05-31T07:06:19;6.30;;;1.58;;
59434;SDS011;45241;49.768;8.636;2023-05-31T07:08:44;4.20;;;1.85;;
59434;SDS011;45241;49.768;8.636;2023-05-31T07:11:10;5.65;;;1.77;;
59434;SDS011;45241;49.768;8.636;2023-05-31T07:13:37;6.22;;;1.70;;
59434;SDS011;45241;49.768;8.636;2023-05-31T07:16:02;3.33;;;1.70;;
59434;SDS011;45241;49.768;8.636;2023-05-31T07:18:27;6.07;;;1.70;;
59434;SDS011;45241;49.768;8.636;2023-05-31T07:20:53;5.97;;;1.70;;
59434;SDS011;45241;49.768;8.636;2023-05-31T07:23:21;4.78;;;1.58;;
59434;SDS011;45241;49.768;8.636;2023-05-31T07:25:48;3.35;;;1.58;;
59434;SDS011;45241;49.768;8.636;2023-05-31T07:28:13;5.63;;;1.70;;
59434;SDS011;45241;49.768;8.636;2023-05-31T07:30:38;7.47;;;1.92;;
59434;SDS011;45241;49.768;8.636;2023-05-31T07:33:04;4.70;;;1.40;;
59434;SDS011;45241;49.768;8.636;2023-05-31T07:35:29;2.45;;;1.23;;
59434;SDS011;45241;49.768;8.636;2023-05-31T07:37:54;4.70;;;1.40;;
59434;SDS011;45241;49.768;8.636;2023-05-31T07:40:20;3.92;;;1.70;;
59434;SDS011;45241;49.768;8.636;2023-05-31T07:42:45;3.97;;;1.90;;
59434;SDS011;45241;49.768;8.636;2023-05-31T07:45:11;3.22;;;1.50;;
59434;SDS011;45241;49.768;8.636;2023-05-31T07:47:36;3.40;;;1.55;;
59434;SDS011;45241;49.768;8.636;2023-05-31T07:50:02;5.20;;;1.48;;
59434;SDS011;45241;49.768;8.636;2023-05-31T07:52:28;4.93;;;1.67;;
59434;SDS011;45241;49.768;8.636;2023-05-31T07:54:54;4.90;;;1.60;;
59434;SDS011;45241;49.768;8.636;2023-05-31T07:57:19;2.95;;;1.35;;
59434;SDS011;45241;49.768;8.636;2023-05-31T07:59:45;4.75;;;1.60;;
59434;SDS011;45241;49.768;8.636;2023-05-31T08:02:10;4.88;;;1.60;;
59434;SDS011;45241;49.768;8.636;2023-05-31T08:04:35;3.83;;;1.70;;
59434;SDS011;45241;49.768;8.636;2023-05-31T08:07:01;7.38;;;1.90;;
59434;SDS011;45241;49.768;8.636;2023-05-31T08:09:26;4.75;;;1.95;;
59434;SDS011;45241;49.768;8.636;2023-05-31T08:11:52;3.45;;;1.63;;
59434;SDS011;45241;49.768;8.636;2023-05-31T08:14:17;5.22;;;1.70;;
59434;SDS011;45241;49.768;8.636;2023-05-31T08:16:43;5.15;;;1.52;;
59434;SDS011;45241;49.768;8.636;2023-05-31T08:19:08;4.72;;;1.55;;
59434;SDS011;45241;49.768;8.636;2023-05-31T08:21:33;4.78;;;1.50;;
59434;SDS011;45241;49.768;8.636;2023-05-31T08:24:01;4.85;;;1.38;;
59434;SDS011;45241;49.768;8.636;2023-05-31T08:26:27;4.20;;;1.50;;
59434;SDS011;45241;49.768;8.636;2023-05-31T08:28:53;3.53;;;1.50;;
59434;SDS011;45241;49.768;8.636;2023-05-31T08:31:18;5.38;;;1.67;;
59434;SDS011;45241;49.768;8.636;2023-05-31T08:33:53;2.83;;;1.45;;
59434;SDS011;45241;49.768;8.636;2023-05-31T08:36:20;4.97;;;1.55;;
59434;SDS011;45241;49.768;8.636;2023-05-31T08:38:46;3.53;;;1.42;;
59434;SDS011;45241;49.768;8.636;2023-05-31T08:41:12;2.95;;;1.40;;
59434;SDS011;45241;49.768;8.636;2023-05-31T08:43:38;2.53;;;1.20;;
59434;SDS011;45241;49.768;8.636;2023-05-31T08:46:04;2.47;;;1.30;;
59434;SDS011;45241;49.768;8.636;2023-05-31T08:48:42;3.10;;;1.40;;
59434;SDS011;45241;49.768;8.636;2023-05-31T08:51:17;4.65;;;1.48;;
59434;SDS011;45241;49.768;8.636;2023-05-31T08:53:43;3.03;;;1.30;;
59434;SDS011;45241;49.768;8.636;2023-05-31T08:56:11;2.33;;;1.10;;
59434;SDS011;45241;49.768;8.636;2023-05-31T08:58:37;2.35;;;1.33;;
59434;SDS011;45241;49.768;8.636;2023-05-31T09:01:03;2.65;;;1.45;;
59434;SDS011;45241;49.768;8.636;2023-05-31T09:03:31;4.00;;;1.20;;
59434;SDS011;45241;49.768;8.636;2023-05-31T09:05:57;2.10;;;1.20;;
59434;SDS011;45241;49.768;8.636;2023-05-31T09:08:23;2.85;;;1.38;;
59434;SDS011;45241;49.768;8.636;2023-05-31T09:10:49;3.53;;;1.15;;
59434;SDS011;45241;49.768;8.636;2023-05-31T09:13:15;6.22;;;1.40;;
59434;SDS011;45241;49.768;8.636;2023-05-31T09:15:40;3.15;;;1.73;;
59434;SDS011;45241;49.768;8.636;2023-05-31T09:18:13;3.20;;;1.30;;
59434;SDS011;45241;49.768;8.636;2023-05-31T09:20:40;2.53;;;1.25;;
59434;SDS011;45241;49.768;8.636;2023-05-31T09:23:07;4.70;;;1.45;;
59434;SDS011;45241;49.768;8.636;2023-05-31T09:25:43;1.75;;;1.00;;
59434;SDS011;45241;49.768;8.636;2023-05-31T09:28:16;2.38;;;1.40;;
59434;SDS011;45241;49.768;8.636;2023-05-31T09:30:43;3.55;;;1.58;;
59434;SDS011;45241;49.768;8.636;2023-05-31T09:33:09;4.00;;;1.33;;
59434;SDS011;45241;49.768;8.636;2023-05-31T09:35:35;1.70;;;1.20;;
59434;SDS011;45241;49.768;8.636;2023-05-31T09:38:04;3.50;;;1.40;;
59434;SDS011;45241;49.768;8.636;2023-05-31T09:40:31;4.88;;;1.30;;
59434;SDS011;45241;49.768;8.636;2023-05-31T09:42:57;3.67;;;1.15;;
59434;SDS011;45241;49.768;8.636;2023-05-31T09:45:23;3.20;;;1.20;;
59434;SDS011;45241;49.768;8.636;2023-05-31T09:47:49;3.33;;;1.33;;
59434;SDS011;45241;49.768;8.636;2023-05-31T09:50:18;4.88;;;1.77;;
59434;SDS011;45241;49.768;8.636;2023-05-31T09:52:45;2.95;;;1.23;;
59434;SDS011;45241;49.768;8.636;2023-05-31T09:55:14;2.47;;;1.42;;
59434;SDS011;45241;49.768;8.636;2023-05-31T09:57:41;3.03;;;1.30;;
59434;SDS011;45241;49.768;8.636;2023-05-31T10:00:14;2.92;;;1.20;;
59434;SDS011;45241;49.768;8.636;2023-05-31T10:02:43;3.45;;;1.52;;
59434;SDS011;45241;49.768;8.636;2023-05-31T10:05:10;4.78;;;1.20;;
59434;SDS011;45241;49.768;8.636;2023-05-31T10:07:39;4.88;;;1.50;;
59434;SDS011;45241;49.768;8.636;2023-05-31T10:10:06;3.20;;;1.38;;
59434;SDS011;45241;49.768;8.636;2023-05-31T10:12:34;4.07;;;1.40;;
59434;SDS011;45241;49.768;8.636;2023-05-31T10:15:06;3.78;;;1.30;;
59434;SDS011;45241;49.768;8.636;2023-05-31T10:17:37;3.70;;;1.30;;
59434;SDS011;45241;49.768;8.636;2023-05-31T10:20:07;2.35;;;1.15;;
59434;SDS011;45241;49.768;8.636;2023-05-31T10:22:34;2.40;;;1.33;;
59434;SDS011;45241;49.768;8.636;2023-05-31T10:25:05;2.95;;;1.20;;
59434;SDS011;45241;49.768;8.636;2023-05-31T10:27:38;2.47;;;1.20;;
59434;SDS011;45241;49.768;8.636;2023-05-31T10:30:07;2.50;;;1.20;;
59434;SDS011;45241;49.768;8.636;2023-05-31T10:32:37;3.90;;;1.20;;
59434;SDS011;45241;49.768;8.636;2023-05-31T10:35:08;2.97;;;1.17;;
59434;SDS011;45241;49.768;8.636;2023-05-31T10:37:34;2.05;;;1.00;;
59434;SDS011;45241;49.768;8.636;2023-05-31T10:40:05;1.45;;;1.00;;
59434;SDS011;45241;49.768;8.636;2023-05-31T10:42:35;2.63;;;1.27;;
59434;SDS011;45241;49.768;8.636;2023-05-31T10:45:06;2.72;;;1.25;;
59434;SDS011;45241;49.768;8.636;2023-05-31T10:47:35;2.47;;;1.20;;
59434;SDS011;45241;49.768;8.636;2023-05-31T10:50:04;2.92;;;1.20;;
59434;SDS011;45241;49.768;8.636;2023-05-31T10:52:31;1.65;;;0.95;;
59434;SDS011;45241;49.768;8.636;2023-05-31T10:55:18;1.83;;;1.20;;
59434;SDS011;45241;49.768;8.636;2023-05-31T10:57:50;3.42;;;1.33;;
59434;SDS011;45241;49.768;8.636;2023-05-31T11:00:23;2.97;;;1.00;;
59434;SDS011;45241;49.768;8.636;2023-05-31T11:02:53;3.15;;;1.27;;
59434;SDS011;45241;49.768;8.636;2023-05-31T11:05:22;3.00;;;1.30;;
59434;SDS011;45241;49.768;8.636;2023-05-31T11:07:50;2.33;;;1.20;;
59434;SDS011;45241;49.768;8.636;2023-05-31T11:10:25;2.55;;;1.15;;
59434;SDS011;45241;49.768;8.636;2023-05-31T11:12:57;3.78;;;1.17;;
59434;SDS011;45241;49.768;8.636;2023-05-31T11:15:43;2.85;;;1.40;;
59434;SDS011;45241;49.768;8.636;2023-05-31T11:18:43;5.63;;;1.55;;
59434;SDS011;45241;49.768;8.636;2023-05-31T11:21:05;1.50;;;1.30;;
59434;SDS011;45241;49.768;8.636;2023-05-31T11:23:31;6.38;;;1.50;;
59434;SDS011;45241;49.768;8.636;2023-05-31T11:26:06;4.10;;;1.17;;
59434;SDS011;45241;49.768;8.636;2023-05-31T11:28:51;3.20;;;1.42;;
59434;SDS011;45241;49.768;8.636;2023-05-31T11:34:30;2.70;;;1.33;;
59434;SDS011;45241;49.768;8.636;2023-05-31T11:37:01;1.98;;;1.20;;
59434;SDS011;45241;49.768;8.636;2023-05-31T11:39:29;3.97;;;1.10;;
59434;SDS011;45241;49.768;8.636;2023-05-31T11:41:54;3.00;;;1.23;;
59434;SDS011;45241;49.768;8.636;2023-05-31T11:44:27;1.65;;;1.02;;
59434;SDS011;45241;49.768;8.636;2023-05-31T11:46:56;2.65;;;1.13;;
59434;SDS011;45241;49.768;8.636;2023-05-31T11:49:29;2.95;;;1.27;;
59434;SDS011;45241;49.768;8.636;2023-05-31T11:51:56;2.30;;;1.13;;
59434;SDS011;45241;49.768;8.636;2023-05-31T11:54:25;2.20;;;1.42;;
59434;SDS011;45241;49.768;8.636;2023-05-31T11:56:54;2.85;;;1.20;;
59434;SDS011;45241;49.768;8.636;2023-05-31T11:59:24;1.92;;;1.00;;
59434;SDS011;45241;49.768;8.636;2023-05-31T12:01:50;2.80;;;1.40;;
59434;SDS011;45241;49.768;8.636;2023-05-31T12:04:15;2.20;;;1.20;;
59434;SDS011;45241;49.768;8.636;2023-05-31T12:06:40;4.68;;;1.20;;
59434;SDS011;45241;49.768;8.636;2023-05-31T12:09:08;2.47;;;1.10;;
59434;SDS011;45241;49.768;8.636;2023-05-31T12:11:34;2.95;;;1.00;;
59434;SDS011;45241;49.768;8.636;2023-05-31T12:14:00;3.63;;;1.33;;
59434;SDS011;45241;49.768;8.636;2023-05-31T12:16:26;3.70;;;1.23;;
59434;SDS011;45241;49.768;8.636;2023-05-31T12:18:52;2.10;;;1.20;;
59434;SDS011;45241;49.768;8.636;2023-05-31T12:21:19;2.33;;;1.27;;
59434;SDS011;45241;49.768;8.636;2023-05-31T12:23:55;1.80;;;1.20;;
59434;SDS011;45241;49.768;8.636;2023-05-31T12:26:23;2.05;;;1.27;;
59434;SDS011;45241;49.768;8.636;2023-05-31T12:28:49;1.90;;;1.20;;
59434;SDS011;45241;49.768;8.636;2023-05-31T12:31:19;2.45;;;1.13;;
59434;SDS011;45241;49.768;8.636;2023-05-31T12:33:57;1.58;;;1.27;;
59434;SDS011;45241;49.768;8.636;2023-05-31T12:36:28;2.40;;;1.20;;
59434;SDS011;45241;49.768;8.636;2023-05-31T12:39:01;2.00;;;1.00;;
59434;SDS011;45241;49.768;8.636;2023-05-31T12:41:26;2.42;;;1.15;;
59434;SDS011;45241;49.768;8.636;2023-05-31T12:43:53;1.83;;;0.90;;
59434;SDS011;45241;49.768;8.636;2023-05-31T12:46:19;2.40;;;1.42;;
59434;SDS011;45241;49.768;8.636;2023-05-31T12:48:47;3.28;;;1.10;;
59434;SDS011;45241;49.768;8.636;2023-05-31T12:51:13;2.55;;;1.27;;
59434;SDS011;45241;49.768;8.636;2023-05-31T12:53:45;2.58;;;1.10;;
59434;SDS011;45241;49.768;8.636;2023-05-31T12:56:10;2.95;;;1.10;;
59434;SDS011;45241;49.768;8.636;2023-05-31T12:58:36;2.55;;;1.40;;
59434;SDS011;45241;49.768;8.636;2023-05-31T13:01:01;3.47;;;1.30;;
59434;SDS011;45241;49.768;8.636;2023-05-31T13:03:26;1.83;;;1.20;;
59434;SDS011;45241;49.768;8.636;2023-05-31T13:05:52;2.47;;;1.10;;
59434;SDS011;45241;49.768;8.636;2023-05-31T13:08:17;4.00;;;1.13;;
59434;SDS011;45241;49.768;8.636;2023-05-31T13:10:42;2.33;;;1.30;;
59434;SDS011;45241;49.768;8.636;2023-05-31T13:13:08;2.15;;;1.20;;
59434;SDS011;45241;49.768;8.636;2023-05-31T13:15:33;2.85;;;1.40;;
59434;SDS011;45241;49.768;8.636;2023-05-31T13:17:59;1.65;;;1.17;;
59434;SDS011;45241;49.768;8.636;2023-05-31T13:20:24;2.03;;;1.13;;
59434;SDS011;45241;49.768;8.636;2023-05-31T13:22:49;2.33;;;1.13;;
59434;SDS011;45241;49.768;8.636;2023-05-31T13:25:15;2.70;;;1.38;;
59434;SDS011;45241;49.768;8.636;2023-05-31T13:27:40;5.22;;;1.27;;
59434;SDS011;45241;49.768;8.636;2023-05-31T13:30:06;1.92;;;1.10;;
59434;SDS011;45241;49.768;8.636;2023-05-31T13:32:32;3.63;;;1.20;;
59434;SDS011;45241;49.768;8.636;2023-05-31T13:34:58;2.72;;;1.40;;
59434;SDS011;45241;49.768;8.636;2023-05-31T13:37:23;1.95;;;1.05;;
59434;SDS011;45241;49.768;8.636;2023-05-31T13:39:48;2.47;;;1.60;;
59434;SDS011;45241;49.768;8.636;2023-05-31T13:42:14;1.55;;;1.00;;
59434;SDS011;45241;49.768;8.636;2023-05-31T13:44:39;2.88;;;1.00;;
59434;SDS011;45241;49.768;8.636;2023-05-31T13:47:05;1.85;;;1.00;;
59434;SDS011;45241;49.768;8.636;2023-05-31T13:49:30;1.98;;;1.00;;
59434;SDS011;45241;49.768;8.636;2023-05-31T13:51:56;2.83;;;1.00;;
59434;SDS011;45241;49.768;8.636;2023-05-31T13:54:21;2.05;;;1.25;;
59434;SDS011;45241;49.768;8.636;2023-05-31T13:56:46;2.85;;;1.00;;
59434;SDS011;45241;49.768;8.636;2023-05-31T13:59:12;3.67;;;1.27;;
59434;SDS011;45241;49.768;8.636;2023-05-31T14:01:37;2.72;;;1.20;;
59434;SDS011;45241;49.768;8.636;2023-05-31T14:04:02;2.42;;;1.30;;
59434;SDS011;45241;49.768;8.636;2023-05-31T14:06:28;3.85;;;1.00;;
59434;SDS011;45241;49.768;8.636;2023-05-31T14:08:53;2.25;;;1.02;;
59434;SDS011;45241;49.768;8.636;2023-05-31T14:11:20;3.05;;;1.10;;
59434;SDS011;45241;49.768;8.636;2023-05-31T14:13:47;3.40;;;1.05;;
59434;SDS011;45241;49.768;8.636;2023-05-31T14:16:13;2.58;;;1.00;;
59434;SDS011;45241;49.768;8.636;2023-05-31T14:18:38;1.85;;;1.02;;
59434;SDS011;45241;49.768;8.636;2023-05-31T14:21:03;1.65;;;1.08;;
59434;SDS011;45241;49.768;8.636;2023-05-31T14:23:29;2.63;;;1.00;;
59434;SDS011;45241;49.768;8.636;2023-05-31T14:25:55;2.47;;;1.05;;
59434;SDS011;45241;49.768;8.636;2023-05-31T14:28:20;2.17;;;1.00;;
59434;SDS011;45241;49.768;8.636;2023-05-31T14:30:46;2.10;;;1.20;;
59434;SDS011;45241;49.768;8.636;2023-05-31T14:33:11;1.58;;;1.20;;
59434;SDS011;45241;49.768;8.636;2023-05-31T14:35:36;3.92;;;1.10;;
59434;SDS011;45241;49.768;8.636;2023-05-31T14:38:02;2.20;;;1.30;;
59434;SDS011;45241;49.768;8.636;2023-05-31T14:40:27;3.22;;;1.13;;
59434;SDS011;45241;49.768;8.636;2023-05-31T14:42:53;1.10;;;1.00;;
59434;SDS011;45241;49.768;8.636;2023-05-31T14:45:18;2.17;;;1.10;;
59434;SDS011;45241;49.768;8.636;2023-05-31T14:47:43;1.70;;;0.93;;
59434;SDS011;45241;49.768;8.636;2023-05-31T14:50:08;3.00;;;1.30;;
59434;SDS011;45241;49.768;8.636;2023-05-31T14:52:34;1.52;;;1.05;;
59434;SDS011;45241;49.768;8.636;2023-05-31T14:54:59;2.83;;;1.20;;
59434;SDS011;45241;49.768;8.636;2023-05-31T14:57:25;3.50;;;1.13;;
59434;SDS011;45241;49.768;8.636;2023-05-31T14:59:50;1.85;;;1.15;;